Terminal Aerodrome Forecast
Issued by NWS Sioux Falls, SD

Home | Current Version | Previous Version | Text Only | Print | Product List | Glossary On
Versions: 1 2 3 4 5 6 7 8 9 10 11 12 13 14 15 16 17 18 19 20 21 22
000
FTUS43 KFSD 241904 AAA
TAFFSD
TAF AMD
KFSD 241904Z 2419/2518 29008KT 3SM BR OVC004
      TEMPO 2419/2421 2SM -FZDZSN BR
     FM242200 21006KT 6SM BR OVC006
     FM250200 19006KT P6SM BKN008
     FM251300 VRB04KT 4SM BR BKN012=

USA.gov is the U.S. government's official web portal to all federal, state and local government web resources and services.